Time;durP1;ratioP1;P1;durP2;ratioP2;P2;SDS_P1;SDS_P2;PMS_P1;PMS_P2;Temp;Humidity;BMP_temperature;BMP_pressure;BME280_temperature;BME280_humidity;BME280_pressure;Samples;Min_cycle;Max_cycle;Signal;HPM_P1;HPM_P2
2023/08/25 00:00:36;;;;;;;;;11.50;11.50;;;;;25.88;50.72;100430.69;5082731;28;45527;-65
2023/08/25 00:03:01;;;;;;;;;11.50;11.25;;;;;25.87;51.19;100426.28;5082832;28;45460;-65
2023/08/25 00:05:27;;;;;;;;;10.75;10.00;;;;;25.87;51.17;100426.28;5082646;28;45412;-65
2023/08/25 00:07:52;;;;;;;;;11.25;11.25;;;;;25.85;50.65;100423.72;5082592;28;45309;-65
2023/08/25 00:10:17;;;;;;;;;9.25;9.25;;;;;25.85;50.58;100425.53;5082459;28;45412;-65
2023/08/25 00:12:43;;;;;;;;;8.00;8.00;;;;;25.80;50.75;100418.72;5082599;28;45466;-65
2023/08/25 00:15:09;;;;;;;;;10.00;10.00;;;;;25.82;50.76;100423.97;5081157;27;45506;-65
2023/08/25 00:17:34;;;;;;;;;10.75;10.00;;;;;25.82;50.89;100420.44;5080956;28;48086;-65
2023/08/25 00:20:00;;;;;;;;;10.75;9.75;;;;;25.81;50.70;100414.22;5082592;28;45324;-65
2023/08/25 00:22:27;;;;;;;;;10.25;10.25;;;;;25.77;51.42;100401.97;5082731;28;45281;-65
2023/08/25 00:24:52;;;;;;;;;9.25;9.00;;;;;25.79;50.92;100410.78;5081989;27;45459;-65
2023/08/25 00:27:18;;;;;;;;;11.75;11.25;;;;;25.75;51.44;100402.09;5082033;28;45496;-65
2023/08/25 00:29:44;;;;;;;;;13.25;11.50;;;;;25.73;50.94;100404.06;5082545;28;45240;-65
2023/08/25 00:32:09;;;;;;;;;10.25;10.00;;;;;25.73;51.39;100400.53;5082301;28;45194;-65
2023/08/25 00:34:34;;;;;;;;;8.50;8.50;;;;;25.71;51.34;100399.78;5082525;28;45374;-65
2023/08/25 00:37:01;;;;;;;;;12.00;10.50;;;;;25.66;51.02;100393.94;5080969;27;47159;-65
2023/08/25 00:39:26;;;;;;;;;10.00;9.50;;;;;25.63;51.04;100390.56;5080941;28;45373;-65
2023/08/25 00:41:51;;;;;;;;;10.75;10.00;;;;;25.65;51.39;100395.78;5080408;28;45812;-65
2023/08/25 00:44:16;;;;;;;;;8.50;7.75;;;;;25.63;51.60;100403.13;5082262;28;45600;-65
2023/08/25 00:46:42;;;;;;;;;10.50;10.50;;;;;25.62;51.45;100396.91;5081701;27;51420;-65
2023/08/25 00:49:08;;;;;;;;;11.00;11.00;;;;;25.58;51.32;100386.53;5082233;28;45424;-65
2023/08/25 00:51:34;;;;;;;;;10.50;9.50;;;;;25.54;51.22;100371.63;5081891;28;45315;-65
2023/08/25 00:54:00;;;;;;;;;11.75;10.00;;;;;25.56;51.22;100383.09;5082166;28;45250;-65
2023/08/25 00:56:26;;;;;;;;;12.75;11.00;;;;;25.52;51.45;100376.28;5081451;27;46593;-65
2023/08/25 00:58:52;;;;;;;;;9.75;9.25;;;;;25.52;51.17;100377.16;5080504;28;45209;-65
2023/08/25 01:01:17;;;;;;;;;11.00;9.25;;;;;25.48;51.39;100378.34;5080676;28;45319;-65
2023/08/25 01:03:44;;;;;;;;;11.25;9.00;;;;;25.45;51.19;100371.41;5080362;28;45527;-65
2023/08/25 01:06:09;;;;;;;;;13.00;12.75;;;;;25.44;51.64;100380.44;5081788;27;46029;-65
2023/08/25 01:08:35;;;;;;;;;13.50;11.50;;;;;25.42;51.38;100371.66;5081797;28;45295;-65
2023/08/25 01:11:26;;;;;;;;;12.50;10.75;;;;;25.42;51.28;100379.72;5080182;28;45300;-65
2023/08/25 01:14:04;;;;;;;;;9.75;9.50;;;;;25.41;51.86;100387.94;5081617;28;45250;-65
2023/08/25 01:16:43;;;;;;;;;12.00;12.00;;;;;25.33;52.00;100376.91;5081581;27;46272;-65
2023/08/25 01:19:39;;;;;;;;;14.00;11.75;;;;;25.36;51.49;100387.41;5081537;28;45326;-65
2023/08/25 01:22:12;;;;;;;;;9.75;6.75;;;;;25.33;51.89;100390.34;5081309;27;45315;-65
2023/08/25 01:24:40;;;;;;;;;12.75;11.00;;;;;25.31;51.95;100396.72;5080287;28;45381;-65
2023/08/25 01:27:06;;;;;;;;;9.00;9.00;;;;;25.33;51.73;100387.66;5080921;28;45431;-65
2023/08/25 01:29:33;;;;;;;;;15.25;11.00;;;;;25.32;51.53;100386.81;5081594;28;45255;-65
2023/08/25 01:31:59;;;;;;;;;14.00;13.25;;;;;25.30;51.76;100375.34;5081749;28;45226;-65
2023/08/25 01:34:24;;;;;;;;;14.75;13.50;;;;;25.29;52.11;100382.53;5081198;28;45383;-65
2023/08/25 01:37:04;;;;;;;;;14.25;12.75;;;;;25.29;52.05;100377.16;5081188;28;46136;-64
2023/08/25 01:39:33;;;;;;;;;10.75;10.75;;;;;25.27;51.73;100373.75;5081596;28;45389;-65
2023/08/25 01:42:03;;;;;;;;;8.25;7.00;;;;;25.26;51.48;100376.56;5080820;28;45407;-65
2023/08/25 01:44:31;;;;;;;;;13.00;13.00;;;;;25.22;52.02;100370.59;5081115;28;45607;-65
2023/08/25 01:47:06;;;;;;;;;10.00;10.00;;;;;25.26;52.19;100381.94;5080998;27;45242;-65
2023/08/25 01:49:32;;;;;;;;;9.00;9.00;;;;;25.21;51.77;100374.25;5081076;28;45245;-65
2023/08/25 01:51:59;;;;;;;;;10.25;10.00;;;;;25.24;51.66;100376.69;5081369;28;45311;-65
2023/08/25 01:54:24;;;;;;;;;9.75;8.75;;;;;25.23;51.80;100369.63;5080985;28;45185;-65
2023/08/25 01:56:50;;;;;;;;;10.75;9.50;;;;;25.21;51.88;100365.34;5079276;27;47230;-65
2023/08/25 01:59:15;;;;;;;;;12.00;11.00;;;;;25.23;52.08;100376.81;5080926;28;45306;-65
2023/08/25 02:01:41;;;;;;;;;13.75;13.25;;;;;25.21;51.70;100358.13;5081222;28;45413;-65
2023/08/25 02:04:06;;;;;;;;;11.25;10.00;;;;;25.22;51.97;100353.59;5079999;28;45468;-65
2023/08/25 02:06:32;;;;;;;;;9.75;8.25;;;;;25.20;52.44;100344.81;5080878;28;45568;-65
2023/08/25 02:08:57;;;;;;;;;12.25;11.50;;;;;25.21;52.20;100346.53;5079275;28;45316;-65
2023/08/25 02:11:23;;;;;;;;;11.25;11.00;;;;;25.17;52.00;100332.47;5079419;28;45369;-65
2023/08/25 02:13:48;;;;;;;;;12.25;12.25;;;;;25.18;52.14;100336.84;5080658;28;45471;-65
2023/08/25 02:16:13;;;;;;;;;11.75;10.50;;;;;25.18;52.18;100342.22;5080342;28;60502;-65
2023/08/25 02:18:39;;;;;;;;;10.50;8.00;;;;;25.17;52.28;100337.84;5078926;28;55756;-65
2023/08/25 02:21:04;;;;;;;;;13.00;13.00;;;;;25.19;52.57;100337.72;5080945;28;45303;-65
2023/08/25 02:23:29;;;;;;;;;13.50;13.50;;;;;25.18;52.59;100330.63;5080257;28;46897;-65
2023/08/25 02:25:54;;;;;;;;;10.00;7.50;;;;;25.18;52.07;100327.94;5080659;27;45419;-65
2023/08/25 02:28:20;;;;;;;;;12.25;12.25;;;;;25.17;52.30;100310.97;5078991;28;45241;-65
2023/08/25 02:30:45;;;;;;;;;13.00;10.75;;;;;25.11;52.01;100298.03;5080333;28;50385;-65
2023/08/25 02:33:12;;;;;;;;;9.25;7.75;;;;;25.13;52.75;100286.19;5079086;28;45573;-65
2023/08/25 02:35:38;;;;;;;;;12.50;12.50;;;;;25.12;51.94;100281.78;5080755;28;45232;-65
2023/08/25 02:38:07;;;;;;;;;13.25;13.00;;;;;25.13;52.33;100272.75;5080266;28;45218;-65
2023/08/25 02:40:33;;;;;;;;;10.50;10.50;;;;;25.12;52.13;100265.66;5078912;28;45329;-65
2023/08/25 02:43:00;;;;;;;;;11.00;11.00;;;;;25.12;52.61;100273.72;5078237;28;45621;-65
2023/08/25 02:45:26;;;;;;;;;13.00;12.25;;;;;25.09;52.34;100257.84;5080324;28;45294;-65
2023/08/25 02:47:52;;;;;;;;;10.75;10.75;;;;;25.08;51.95;100250.75;5080135;28;45259;-65
2023/08/25 02:50:18;;;;;;;;;10.00;9.00;;;;;25.08;52.35;100263.34;5079099;28;45426;-65
2023/08/25 02:52:44;;;;;;;;;10.75;10.75;;;;;25.07;52.76;100261.63;5080146;28;45360;-65
2023/08/25 02:55:11;;;;;;;;;10.75;10.75;;;;;25.06;52.41;100276.06;5079910;27;46110;-65
2023/08/25 02:57:36;;;;;;;;;9.00;9.00;;;;;25.02;52.42;100293.41;5078351;28;45280;-65
2023/08/25 03:00:04;;;;;;;;;11.25;11.25;;;;;25.01;52.93;100295.25;5080241;28;45317;-65
2023/08/25 03:02:29;;;;;;;;;12.50;12.50;;;;;24.99;52.86;100297.19;5079802;28;45483;-65
2023/08/25 03:04:54;;;;;;;;;13.25;13.25;;;;;24.96;52.85;100306.38;5079838;27;46157;-65
2023/08/25 03:07:20;;;;;;;;;13.50;12.00;;;;;24.98;52.77;100319.66;5080050;28;45235;-65
2023/08/25 03:09:45;;;;;;;;;13.00;11.00;;;;;24.98;52.75;100333.09;5080190;28;45433;-65
2023/08/25 03:12:11;;;;;;;;;10.75;9.50;;;;;24.93;52.73;100336.19;5079708;28;45448;-65
2023/08/25 03:14:36;;;;;;;;;14.75;13.00;;;;;24.91;52.66;100335.44;5079920;28;46320;-65
2023/08/25 03:17:01;;;;;;;;;15.00;14.25;;;;;24.91;53.00;100339.97;5078501;28;45252;-65
2023/08/25 03:19:27;;;;;;;;;14.25;12.75;;;;;24.88;53.09;100345.59;5080209;28;45311;-65
2023/08/25 03:21:52;;;;;;;;;12.50;11.00;;;;;24.87;53.16;100357.31;5079806;28;45428;-65
2023/08/25 03:24:17;;;;;;;;;12.00;11.75;;;;;24.87;52.76;100381.50;5079451;27;46784;-65
2023/08/25 03:26:43;;;;;;;;;10.00;10.00;;;;;24.81;53.04;100388.22;5079270;28;45319;-65
2023/08/25 03:29:08;;;;;;;;;12.50;10.50;;;;;24.80;52.92;100408.88;5078487;28;45343;-65
2023/08/25 03:31:33;;;;;;;;;12.50;10.00;;;;;24.77;53.58;100408.25;5079814;28;45405;-65
2023/08/25 03:33:59;;;;;;;;;10.75;10.75;;;;;24.71;53.65;100404.22;5079579;28;46586;-65
2023/08/25 03:36:24;;;;;;;;;11.75;10.50;;;;;24.70;53.46;100415.94;5079287;27;52444;-65
2023/08/25 03:38:50;;;;;;;;;12.00;12.00;;;;;24.66;53.83;100407.25;5078437;28;45297;-65
2023/08/25 03:41:15;;;;;;;;;10.75;10.75;;;;;24.64;53.77;100411.00;5079108;28;45475;-65
2023/08/25 03:43:40;;;;;;;;;13.75;10.75;;;;;24.59;53.76;100400.66;5079739;28;45306;-65
2023/08/25 03:46:05;;;;;;;;;11.00;10.00;;;;;24.55;54.06;100385.72;5077815;28;52200;-65
2023/08/25 03:48:31;;;;;;;;;12.25;12.25;;;;;24.54;54.41;100375.13;5079949;28;45279;-65
2023/08/25 03:50:56;;;;;;;;;10.75;10.00;;;;;24.49;53.86;100352.19;5079342;28;45493;-65
2023/08/25 03:53:22;;;;;;;;;12.50;11.50;;;;;24.49;53.92;100356.72;5079502;28;45398;-65
2023/08/25 03:55:47;;;;;;;;;12.50;11.75;;;;;24.48;54.38;100357.69;5079171;28;45253;-65
2023/08/25 03:58:13;;;;;;;;;13.75;13.00;;;;;24.45;54.34;100352.53;5079447;28;45272;-65
2023/08/25 04:00:38;;;;;;;;;9.75;8.25;;;;;24.44;54.19;100337.38;5079137;28;45465;-65
2023/08/25 04:03:06;;;;;;;;;11.00;10.00;;;;;24.42;54.21;100328.63;5079238;28;45323;-65
2023/08/25 04:05:32;;;;;;;;;13.25;12.00;;;;;24.39;54.77;100324.34;5079101;27;45263;-65
2023/08/25 04:07:57;;;;;;;;;12.00;10.75;;;;;24.40;54.61;100320.69;5079413;28;45305;-65
2023/08/25 04:10:23;;;;;;;;;13.25;12.75;;;;;24.40;55.23;100306.41;5077285;28;49218;-65
2023/08/25 04:12:49;;;;;;;;;10.25;10.25;;;;;24.38;54.68;100290.41;5079034;28;45323;-65
2023/08/25 04:15:14;;;;;;;;;11.50;11.50;;;;;24.40;54.06;100285.78;5077565;27;45239;-65
2023/08/25 04:17:39;;;;;;;;;13.00;12.50;;;;;24.42;54.07;100288.34;5079287;28;45740;-65
2023/08/25 04:20:05;;;;;;;;;13.75;11.50;;;;;24.44;54.42;100278.31;5079063;28;45194;-65
2023/08/25 04:22:31;;;;;;;;;11.50;11.50;;;;;24.45;54.46;100278.22;5078846;28;46529;-65
2023/08/25 04:24:56;;;;;;;;;10.75;10.75;;;;;24.49;54.27;100270.78;5078391;28;45832;-65
2023/08/25 04:27:21;;;;;;;;;15.75;12.25;;;;;24.48;54.25;100269.91;5080962;28;45342;-65
2023/08/25 04:29:47;;;;;;;;;13.75;11.50;;;;;24.48;54.25;100264.53;5082442;28;45473;-65
2023/08/25 04:32:12;;;;;;;;;10.50;10.50;;;;;24.51;54.31;100274.16;5082393;28;45466;-65
2023/08/25 04:34:37;;;;;;;;;13.25;13.25;;;;;24.49;54.39;100265.41;5082444;28;45256;-65
2023/08/25 04:37:03;;;;;;;;;13.75;13.00;;;;;24.55;54.25;100262.19;5082404;27;45696;-65
2023/08/25 04:39:28;;;;;;;;;15.75;14.25;;;;;24.55;54.28;100261.34;5082306;28;45596;-65
2023/08/25 04:41:54;;;;;;;;;13.75;12.25;;;;;24.57;54.26;100267.47;5080355;28;48342;-65
2023/08/25 04:44:20;;;;;;;;;13.75;12.00;;;;;24.57;54.09;100264.78;5080886;28;45469;-65
2023/08/25 04:46:45;;;;;;;;;11.75;11.75;;;;;24.57;54.05;100257.56;5082225;28;45458;-65
2023/08/25 04:49:10;;;;;;;;;16.25;16.00;;;;;24.57;54.19;100262.94;5082222;28;45472;-65
2023/08/25 04:51:36;;;;;;;;;13.75;12.00;;;;;24.58;54.19;100270.03;5081918;28;45285;-65
2023/08/25 04:54:01;;;;;;;;;14.00;13.00;;;;;24.57;54.18;100264.78;5082102;28;45252;-65
2023/08/25 04:56:26;;;;;;;;;17.75;16.50;;;;;24.58;54.49;100263.78;5081823;27;45428;-65
2023/08/25 04:58:52;;;;;;;;;19.25;18.75;;;;;24.56;54.40;100250.47;5081838;28;48337;-65
2023/08/25 05:01:17;;;;;;;;;14.25;12.00;;;;;24.56;54.44;100246.94;5081703;28;45974;-65
2023/08/25 05:03:44;;;;;;;;;12.50;12.50;;;;;24.57;54.38;100262.09;5080501;28;45454;-65
2023/08/25 05:06:10;;;;;;;;;16.25;15.75;;;;;24.58;54.59;100270.03;5081826;27;45228;-65
2023/08/25 05:08:35;;;;;;;;;15.75;14.00;;;;;24.58;54.29;100269.16;5080369;28;45483;-65
2023/08/25 05:11:01;;;;;;;;;17.50;16.25;;;;;24.59;54.10;100279.78;5081569;28;48631;-65
2023/08/25 05:13:27;;;;;;;;;16.00;15.25;;;;;24.57;54.50;100281.72;5081573;28;45379;-65
2023/08/25 05:15:52;;;;;;;;;13.00;13.00;;;;;24.60;54.52;100288.69;5081808;28;45366;-65
2023/08/25 05:18:18;;;;;;;;;16.00;16.00;;;;;24.62;54.11;100292.97;5080306;28;45399;-65
2023/08/25 05:20:43;;;;;;;;;21.00;18.75;;;;;24.60;54.74;100283.31;5081351;28;46293;-65
2023/08/25 05:23:08;;;;;;;;;17.25;15.75;;;;;24.62;54.59;100284.06;5080157;27;45283;-65
2023/08/25 05:25:34;;;;;;;;;21.75;19.00;;;;;24.59;54.77;100279.78;5081424;27;45357;-65
2023/08/25 05:27:59;;;;;;;;;16.75;16.75;;;;;24.62;54.57;100295.63;5081461;28;45292;-65
2023/08/25 05:30:24;;;;;;;;;18.50;18.50;;;;;24.59;54.45;100293.22;5081434;28;45552;-65
2023/08/25 05:32:50;;;;;;;;;22.00;20.25;;;;;24.65;54.85;100305.31;5081581;28;45442;-65
2023/08/25 05:35:15;;;;;;;;;19.75;19.50;;;;;24.66;54.74;100304.34;5081395;28;45297;-65
2023/08/25 05:37:40;;;;;;;;;25.75;24.00;;;;;24.67;54.84;100301.53;5079167;28;45450;-65
2023/08/25 05:40:07;;;;;;;;;25.50;20.00;;;;;24.70;54.66;100315.69;5080862;28;45623;-65
2023/08/25 05:42:33;;;;;;;;;23.00;19.50;;;;;24.70;55.00;100313.84;5081308;28;45430;-65
2023/08/25 05:44:59;;;;;;;;;30.50;25.50;;;;;24.70;54.90;100316.53;5079842;28;45226;-65
2023/08/25 05:47:24;;;;;;;;;28.75;27.00;;;;;24.71;54.67;100320.94;5081352;28;45241;-65
2023/08/25 05:49:50;;;;;;;;;31.25;29.50;;;;;24.74;54.24;100317.16;5079518;28;46783;-65
2023/08/25 05:52:15;;;;;;;;;30.25;27.25;;;;;24.72;55.05;100321.81;5081173;28;45460;-65
2023/08/25 05:54:41;;;;;;;;;25.50;24.50;;;;;24.76;54.79;100323.25;5081179;28;45518;-65
2023/08/25 05:57:06;;;;;;;;;27.75;27.25;;;;;24.76;55.07;100320.59;5079594;27;45257;-65
2023/08/25 05:59:34;;;;;;;;;36.00;31.25;;;;;24.76;54.71;100326.78;5080780;28;46198;-65
2023/08/25 06:01:59;;;;;;;;;48.00;38.25;;;;;24.80;54.66;100332.78;5081037;28;45500;-65
2023/08/25 06:04:26;;;;;;;;;34.00;29.75;;;;;24.74;55.05;100311.78;5080902;28;45432;-66
2023/08/25 06:06:51;;;;;;;;;34.00;27.50;;;;;24.81;54.90;100326.44;5079650;27;45414;-65
2023/08/25 06:09:17;;;;;;;;;34.25;27.75;;;;;24.80;54.66;100322.03;5080402;28;50461;-66
2023/08/25 06:11:44;;;;;;;;;39.00;34.25;;;;;24.86;54.90;100320.69;5080622;28;45339;-65
2023/08/25 06:14:09;;;;;;;;;38.00;33.25;;;;;24.85;54.68;100309.06;5080692;28;45239;-65
2023/08/25 06:16:37;;;;;;;;;37.75;33.00;;;;;24.87;54.93;100312.50;5079205;27;45318;-65
2023/08/25 06:19:03;;;;;;;;;49.75;41.75;;;;;24.86;54.72;100305.41;5079432;28;48047;-65
2023/08/25 06:21:29;;;;;;;;;42.75;35.50;;;;;24.93;55.37;100312.00;5080543;28;45432;-65
2023/08/25 06:23:54;;;;;;;;;48.00;38.00;;;;;24.92;54.87;100304.91;5080447;28;45222;-65
2023/08/25 06:26:19;;;;;;;;;47.00;35.50;;;;;24.97;54.77;100318.81;5080098;27;45438;-65
2023/08/25 06:28:45;;;;;;;;;43.00;36.00;;;;;24.99;54.81;100314.19;5080368;28;46031;-65
2023/08/25 06:31:10;;;;;;;;;41.25;35.00;;;;;25.03;54.72;100312.13;5080556;28;45314;-65
2023/08/25 06:33:36;;;;;;;;;39.50;35.25;;;;;25.05;55.13;100312.81;5079110;28;45337;-65
2023/08/25 06:36:01;;;;;;;;;43.25;35.75;;;;;25.08;55.43;100317.09;5080517;28;45140;-66
2023/08/25 06:38:27;;;;;;;;;43.00;35.25;;;;;25.09;55.00;100319.66;5078875;28;47360;-65
2023/08/25 06:40:54;;;;;;;;;47.50;38.00;;;;;25.12;55.56;100326.63;5080367;28;45453;-65
2023/08/25 06:43:20;;;;;;;;;40.00;35.00;;;;;25.12;55.51;100329.31;5080240;28;45244;-65
2023/08/25 06:45:46;;;;;;;;;49.50;40.75;;;;;25.12;55.63;100327.47;5078933;28;45372;-65
2023/08/25 06:48:11;;;;;;;;;51.25;41.75;;;;;25.13;55.48;100328.31;5080024;28;45909;-65
2023/08/25 06:50:37;;;;;;;;;49.25;40.25;;;;;25.13;55.42;100325.63;5079915;28;45272;-65
2023/08/25 06:53:04;;;;;;;;;46.75;39.25;;;;;25.13;55.82;100323.81;5078952;28;45261;-65
2023/08/25 06:55:32;;;;;;;;;46.25;36.75;;;;;25.14;55.68;100319.28;5080036;28;45383;-65
2023/08/25 06:57:58;;;;;;;;;46.75;37.00;;;;;25.10;55.91;100307.91;5078301;28;48133;-65
2023/08/25 07:00:25;;;;;;;;;47.25;39.00;;;;;25.10;55.84;100313.28;5079958;28;45319;-65
2023/08/25 07:02:51;;;;;;;;;47.50;37.25;;;;;25.08;55.89;100322.47;5079712;28;45437;-65
2023/08/25 07:05:18;;;;;;;;;47.50;37.25;;;;;25.09;55.48;100326.88;5080281;28;45297;-65
2023/08/25 07:07:43;;;;;;;;;39.25;34.25;;;;;25.06;55.81;100327.13;5079704;28;46602;-65
2023/08/25 07:10:09;;;;;;;;;42.75;34.50;;;;;25.07;55.79;100334.19;5079650;28;45306;-65
2023/08/25 07:12:35;;;;;;;;;41.00;36.25;;;;;25.05;55.79;100334.31;5079705;28;45349;-65
2023/08/25 07:15:00;;;;;;;;;46.75;36.75;;;;;25.04;55.24;100347.91;5079886;28;45305;-65
2023/08/25 07:17:25;;;;;;;;;41.00;34.50;;;;;25.04;55.25;100340.66;5079723;28;45150;-65
2023/08/25 07:19:51;;;;;;;;;43.00;35.25;;;;;25.05;55.39;100328.09;5078693;28;45282;-65
2023/08/25 07:22:16;;;;;;;;;44.50;34.50;;;;;25.05;55.45;100320.03;5079775;28;45414;-65
2023/08/25 07:24:42;;;;;;;;;46.00;37.00;;;;;25.07;55.51;100328.81;5079719;28;45224;-66
2023/08/25 07:27:07;;;;;;;;;45.25;36.00;;;;;25.09;55.44;100327.75;5079130;28;46165;-65
2023/08/25 07:29:36;;;;;;;;;40.25;35.50;;;;;25.10;55.13;100317.81;5079796;28;45185;-65
2023/08/25 07:32:02;;;;;;;;;39.25;33.25;;;;;25.12;54.99;100332.84;5079761;28;45444;-65
2023/08/25 07:34:28;;;;;;;;;43.75;37.25;;;;;25.14;55.25;100327.34;5079726;28;45491;-66
2023/08/25 07:36:53;;;;;;;;;38.50;32.75;;;;;25.13;55.87;100329.19;5078216;28;45550;-65
2023/08/25 07:39:19;;;;;;;;;31.75;28.00;;;;;25.14;55.46;100335.41;5079792;28;45316;-65
2023/08/25 07:41:44;;;;;;;;;34.50;30.50;;;;;25.07;55.77;100328.81;5079181;28;45523;-65
2023/08/25 07:44:09;;;;;;;;;36.75;33.00;;;;;25.09;55.80;100343.00;5079777;28;45427;-65
2023/08/25 07:46:37;;;;;;;;;32.50;30.25;;;;;25.10;55.88;100352.78;5078102;28;48256;-65
2023/08/25 07:49:03;;;;;;;;;39.75;32.00;;;;;25.08;55.72;100357.41;5078219;28;45332;-65
2023/08/25 07:51:28;;;;;;;;;36.50;30.50;;;;;25.03;55.80;100352.44;5079369;28;45383;-65
2023/08/25 07:53:54;;;;;;;;;30.50;27.00;;;;;25.07;55.96;100369.13;5079448;28;45252;-65
2023/08/25 07:56:19;;;;;;;;;30.75;29.00;;;;;25.07;55.93;100380.75;5077405;28;52102;-65
2023/08/25 07:58:44;;;;;;;;;28.25;27.75;;;;;25.04;55.90;100382.84;5078227;27;45323;-65
2023/08/25 08:01:11;;;;;;;;;29.75;26.50;;;;;25.04;55.32;100389.06;5078367;28;45311;-65
2023/08/25 08:03:36;;;;;;;;;34.50;27.75;;;;;25.02;55.63;100391.03;5082695;27;45501;-65
2023/08/25 08:06:02;;;;;;;;;28.00;24.50;;;;;25.01;55.32;100385.78;5082448;27;47095;-65
2023/08/25 08:08:27;;;;;;;;;30.00;25.25;;;;;24.97;55.44;100391.38;5083002;28;45225;-65
2023/08/25 08:10:53;;;;;;;;;28.00;26.50;;;;;24.98;55.22;100392.22;5081184;28;45337;-65
2023/08/25 08:13:18;;;;;;;;;26.25;23.75;;;;;24.95;55.19;100392.50;5082627;28;45466;-64
2023/08/25 08:15:43;;;;;;;;;21.00;18.50;;;;;24.95;55.51;100397.88;5082459;27;45360;-65
2023/08/25 08:18:09;;;;;;;;;22.75;22.25;;;;;24.94;55.10;100404.22;5082541;28;48653;-65
2023/08/25 08:20:35;;;;;;;;;22.25;19.50;;;;;24.92;55.16;100407.03;5082519;28;45405;-65
2023/08/25 08:23:00;;;;;;;;;22.75;20.25;;;;;24.91;55.49;100410.69;5082712;28;45318;-65
2023/08/25 08:25:26;;;;;;;;;25.50;24.75;;;;;24.86;55.53;100414.75;5081788;27;49765;-65
2023/08/25 08:27:51;;;;;;;;;20.50;17.75;;;;;24.84;55.31;100414.84;5082380;28;45234;-65
2023/08/25 08:30:19;;;;;;;;;19.75;16.25;;;;;24.82;55.26;100412.28;5082482;28;45392;-65
2023/08/25 08:32:46;;;;;;;;;21.25;20.25;;;;;24.81;55.25;100424.00;5082375;27;45430;-65
2023/08/25 08:35:12;;;;;;;;;21.75;20.50;;;;;24.78;55.52;100410.81;5080564;28;47336;-65
2023/08/25 08:37:38;;;;;;;;;17.75;15.00;;;;;24.77;55.80;100414.47;5082132;28;45316;-65
2023/08/25 08:40:05;;;;;;;;;18.75;17.50;;;;;24.76;55.73;100422.66;5082079;28;45374;-65
2023/08/25 08:42:33;;;;;;;;;20.00;18.75;;;;;24.71;55.48;100422.19;5081900;28;45326;-65
2023/08/25 08:45:03;;;;;;;;;16.25;14.25;;;;;24.72;55.31;100430.09;5080564;27;47178;-65
2023/08/25 08:47:31;;;;;;;;;20.75;19.25;;;;;24.72;55.64;100431.97;5082173;28;45375;-65
2023/08/25 08:49:58;;;;;;;;;19.00;17.00;;;;;24.67;55.68;100427.78;5082116;28;45286;-65
2023/08/25 08:52:23;;;;;;;;;16.50;16.50;;;;;24.70;55.44;100429.38;5082075;28;45208;-65
2023/08/25 08:54:49;;;;;;;;;18.25;17.75;;;;;24.70;55.26;100437.44;5081714;27;46336;-65
2023/08/25 08:57:15;;;;;;;;;21.75;18.25;;;;;24.67;55.28;100438.53;5081778;28;45177;-65
2023/08/25 08:59:41;;;;;;;;;16.75;15.50;;;;;24.66;55.57;100439.50;5082148;28;45404;-66
2023/08/25 09:02:08;;;;;;;;;20.25;18.25;;;;;24.65;55.62;100440.50;5081768;28;45486;-65
2023/08/25 09:04:38;;;;;;;;;18.25;16.25;;;;;24.65;55.26;100459.28;5081794;27;46586;-65
2023/08/25 09:07:06;;;;;;;;;16.50;16.00;;;;;24.65;55.06;100466.47;5081593;27;45241;-65
2023/08/25 09:09:32;;;;;;;;;20.25;18.25;;;;;24.64;55.39;100462.03;5081718;28;45276;-65
2023/08/25 09:11:57;;;;;;;;;21.25;16.75;;;;;24.60;56.02;100474.00;5081191;27;45532;-65
2023/08/25 09:14:28;;;;;;;;;18.50;16.50;;;;;24.62;55.47;100477.44;5081320;28;54795;-65
2023/08/25 09:16:55;;;;;;;;;15.75;15.75;;;;;24.59;55.73;100485.72;5081782;27;45442;-65
2023/08/25 09:19:21;;;;;;;;;16.50;14.00;;;;;24.57;55.25;100483.16;5081815;28;45419;-65
2023/08/25 09:21:46;;;;;;;;;11.75;11.00;;;;;24.57;55.60;100485.00;5081435;28;45291;-65
2023/08/25 09:24:21;;;;;;;;;9.75;9.25;;;;;24.54;55.45;100491.47;5081398;28;45923;-66
2023/08/25 09:26:47;;;;;;;;;13.00;10.50;;;;;24.54;55.75;100499.53;5081251;27;45405;-65
2023/08/25 09:29:12;;;;;;;;;21.25;19.00;;;;;24.52;55.77;100496.09;5081685;28;45325;-65
2023/08/25 09:31:38;;;;;;;;;11.50;11.50;;;;;24.46;55.52;100496.56;5080266;28;45560;-65
2023/08/25 09:34:06;;;;;;;;;12.75;10.50;;;;;24.42;55.19;100495.94;5081418;28;51575;-65
2023/08/25 09:36:31;;;;;;;;;7.25;6.25;;;;;24.45;55.50;100510.97;5080003;27;45836;-65
2023/08/25 09:38:58;;;;;;;;;5.75;5.75;;;;;24.43;55.46;100513.78;5081688;28;45303;-65
2023/08/25 09:41:27;;;;;;;;;6.00;6.00;;;;;24.42;55.00;100505.84;5080966;28;45568;-65
2023/08/25 09:43:57;;;;;;;;;8.00;7.75;;;;;24.39;55.55;100512.31;5081418;28;46092;-65
2023/08/25 09:46:32;;;;;;;;;6.75;6.00;;;;;24.33;55.70;100508.25;5079985;28;45268;-65
2023/08/25 09:49:02;;;;;;;;;3.75;3.25;;;;;24.32;55.51;100514.56;5080097;28;45318;-65
2023/08/25 09:51:50;;;;;;;;;5.75;4.75;;;;;24.28;55.66;100513.09;5081134;28;45361;-65
2023/08/25 09:54:17;;;;;;;;;4.00;4.00;;;;;24.22;55.94;100505.50;5080933;28;45935;-65
2023/08/25 09:56:45;;;;;;;;;3.00;3.00;;;;;24.20;55.25;100518.22;5080721;27;45394;-65
2023/08/25 09:59:13;;;;;;;;;3.75;2.75;;;;;24.14;55.63;100508.78;5081272;28;45497;-65
2023/08/25 10:01:41;;;;;;;;;4.25;4.25;;;;;24.12;55.41;100507.19;5080854;28;45311;-65
2023/08/25 10:04:06;;;;;;;;;3.00;3.00;;;;;24.09;55.23;100513.63;5079340;28;46530;-65
2023/08/25 10:06:33;;;;;;;;;4.00;1.00;;;;;24.04;55.11;100501.53;5079485;28;45394;-65
2023/08/25 10:08:59;;;;;;;;;3.50;3.50;;;;;24.04;55.76;100506.88;5079677;28;45453;-65
2023/08/25 10:11:34;;;;;;;;;5.25;4.00;;;;;23.98;55.33;100509.06;5080605;28;45181;-65
2023/08/25 10:14:02;;;;;;;;;5.75;4.75;;;;;23.94;55.81;100512.94;5080583;28;46170;-65
2023/08/25 10:16:30;;;;;;;;;7.25;4.25;;;;;23.89;55.34;100509.72;5080759;27;45280;-65
2023/08/25 10:18:58;;;;;;;;;4.50;4.00;;;;;23.86;55.33;100513.50;5081003;28;45215;-65
2023/08/25 10:21:25;;;;;;;;;4.50;4.50;;;;;23.84;55.42;100511.91;5079333;28;46159;-65
2023/08/25 10:23:54;;;;;;;;;3.00;3.00;;;;;23.84;55.34;100520.78;5078293;27;46976;-65
2023/08/25 10:26:21;;;;;;;;;4.50;3.00;;;;;23.82;55.48;100513.81;5080087;28;45374;-65
2023/08/25 10:28:47;;;;;;;;;6.25;5.25;;;;;23.78;55.77;100515.03;5080670;28;45233;-65
2023/08/25 10:31:13;;;;;;;;;4.75;4.75;;;;;23.80;55.03;100529.19;5080549;28;45298;-65
2023/08/25 10:33:50;;;;;;;;;6.75;4.50;;;;;23.75;55.50;100516.09;5080359;27;45364;-65
2023/08/25 10:36:22;;;;;;;;;5.00;3.75;;;;;23.73;55.52;100519.88;5080682;27;45267;-65
2023/08/25 10:38:54;;;;;;;;;5.25;3.50;;;;;23.75;55.46;100529.53;5080609;28;45307;-65
2023/08/25 10:41:20;;;;;;;;;6.25;4.00;;;;;23.72;55.23;100532.41;5078545;28;45456;-65
2023/08/25 10:43:49;;;;;;;;;6.00;3.25;;;;;23.75;55.04;100534.00;5080380;28;45311;-65
2023/08/25 10:46:18;;;;;;;;;4.00;4.00;;;;;23.73;55.27;100535.97;5080472;27;45252;-65
2023/08/25 10:48:43;;;;;;;;;5.25;3.50;;;;;23.74;55.13;100543.91;5080529;28;45379;-65
2023/08/25 10:51:15;;;;;;;;;5.00;4.00;;;;;23.74;55.04;100537.69;5078764;28;45403;-65
2023/08/25 10:53:52;;;;;;;;;4.00;4.00;;;;;23.75;55.20;100534.88;5080452;28;46371;-66
2023/08/25 10:56:17;;;;;;;;;3.00;3.00;;;;;23.76;55.19;100539.28;5079757;27;45540;-66
2023/08/25 10:58:53;;;;;;;;;4.75;4.75;;;;;23.74;54.94;100543.06;5080319;28;45422;-66
2023/08/25 11:01:19;;;;;;;;;4.25;4.25;;;;;23.72;54.95;100545.81;5080069;28;45299;-66
2023/08/25 11:04:01;;;;;;;;;4.50;4.50;;;;;23.69;54.85;100538.00;5079850;28;46843;-66
2023/08/25 11:06:43;;;;;;;;;3.00;3.00;;;;;23.72;54.76;100550.34;5078703;28;45972;-66
2023/08/25 11:09:11;;;;;;;;;4.25;4.25;;;;;23.71;54.58;100552.19;5079890;28;45254;-66